Time;durP1;ratioP1;P1;durP2;ratioP2;P2;SDS_P1;SDS_P2;PMS_P1;PMS_P2;Temp;Humidity;BMP_temperature;BMP_pressure;BME280_temperature;BME280_humidity;BME280_pressure;Samples;Min_cycle;Max_cycle;Signal;HPM_P1;HPM_P2
2023/12/04 00:00:04;;;;;;;2.80;1.25;;;;;;;3.83;97.72;99565.31;4971181;28;20098;-49
2023/12/04 00:02:32;;;;;;;3.97;1.02;;;;;;;3.84;97.79;99562.22;4963292;28;20079;-52
2023/12/04 00:04:59;;;;;;;5.10;2.00;;;;;;;3.87;97.89;99564.31;4970551;28;20113;-52
2023/12/04 00:07:27;;;;;;;4.28;1.40;;;;;;;3.89;97.54;99558.53;4971372;28;20053;-54
2023/12/04 00:09:54;;;;;;;1.70;1.30;;;;;;;3.88;97.67;99554.97;4970970;28;20106;-53
2023/12/04 00:12:22;;;;;;;2.33;1.20;;;;;;;3.89;97.37;99553.84;4959359;28;20396;-52
2023/12/04 00:14:49;;;;;;;5.55;1.20;;;;;;;3.91;97.74;99546.13;4970913;28;20051;-56
2023/12/04 00:17:17;;;;;;;1.67;1.17;;;;;;;3.92;97.50;99542.22;4983501;28;20054;-53
2023/12/04 00:19:44;;;;;;;2.50;1.40;;;;;;;3.93;97.53;99546.56;4970520;28;20909;-52
2023/12/04 00:22:11;;;;;;;5.82;1.00;;;;;;;3.93;97.62;99532.88;4970948;28;20057;-55
2023/12/04 00:24:39;;;;;;;4.55;1.40;;;;;;;3.92;97.66;99531.28;4971084;28;20050;-53
2023/12/04 00:27:06;;;;;;;2.05;1.20;;;;;;;3.94;97.70;99536.44;4952970;28;20042;-55
2023/12/04 00:29:33;;;;;;;6.82;1.90;;;;;;;3.96;97.34;99531.41;4971339;28;20445;-52
2023/12/04 00:32:01;;;;;;;3.25;1.25;;;;;;;3.94;97.55;99529.03;4972126;28;20444;-50
2023/12/04 00:34:29;;;;;;;2.90;1.63;;;;;;;3.96;97.44;99525.94;4970788;28;20054;-54
2023/12/04 00:36:56;;;;;;;2.40;1.20;;;;;;;3.96;97.57;99523.22;4970591;28;20873;-54
2023/12/04 00:39:24;;;;;;;3.28;1.42;;;;;;;3.97;97.40;99517.38;4970743;28;20101;-51
2023/12/04 00:41:51;;;;;;;4.28;1.40;;;;;;;3.98;97.40;99509.97;4970552;28;20097;-52
2023/12/04 00:44:18;;;;;;;2.08;1.30;;;;;;;3.99;97.28;99504.19;4970371;28;20105;-54
2023/12/04 00:46:46;;;;;;;2.53;1.30;;;;;;;4.01;97.54;99501.09;4978649;28;20043;-55
2023/12/04 00:49:13;;;;;;;3.63;1.58;;;;;;;4.02;97.53;99506.28;4974174;28;20050;-51
2023/12/04 00:51:41;;;;;;;3.05;1.20;;;;;;;4.02;97.30;99502.72;4970708;28;20046;-53
2023/12/04 00:54:08;;;;;;;4.35;1.35;;;;;;;4.04;97.35;99503.19;4970192;28;20105;-54
2023/12/04 00:56:39;;;;;;;4.25;1.63;;;;;;;4.01;97.44;99499.19;4970282;28;20097;-53
2023/12/04 00:59:08;;;;;;;2.60;1.25;;;;;;;4.01;97.25;99490.16;4968662;28;20508;-51
2023/12/04 01:01:36;;;;;;;2.22;1.38;;;;;;;4.00;97.28;99491.28;4970236;28;20720;-52
2023/12/04 01:04:05;;;;;;;2.95;1.50;;;;;;;3.99;97.18;99493.22;4970300;28;20050;-53
2023/12/04 01:06:32;;;;;;;2.97;1.13;;;;;;;3.99;97.37;99487.75;4970382;28;20059;-51
2023/12/04 01:09:00;;;;;;;0.85;0.85;;;;;;;4.00;97.18;99494.00;4969152;28;20078;-52
2023/12/04 01:11:27;;;;;;;3.20;1.50;;;;;;;4.00;97.26;99489.34;4980774;28;20046;-55
2023/12/04 01:13:55;;;;;;;3.17;1.00;;;;;;;4.01;97.44;99474.53;4971324;28;20074;-51
2023/12/04 01:16:22;;;;;;;2.22;1.27;;;;;;;4.01;97.49;99474.53;4970069;28;20085;-51
2023/12/04 01:18:49;;;;;;;8.43;2.25;;;;;;;4.02;97.34;99469.84;4969581;28;20039;-49
2023/12/04 01:21:17;;;;;;;7.53;1.63;;;;;;;4.01;97.08;99473.72;4953061;28;20049;-54
2023/12/04 01:23:44;;;;;;;3.40;1.75;;;;;;;3.99;97.17;99479.53;4969206;28;20053;-48
2023/12/04 01:26:11;;;;;;;4.05;1.30;;;;;;;3.99;97.21;99479.53;4971517;28;20045;-52
2023/12/04 01:28:39;;;;;;;3.03;1.13;;;;;;;3.98;96.69;99464.25;4978954;28;20058;-53
2023/12/04 01:31:07;;;;;;;2.15;1.00;;;;;;;3.98;97.04;99466.16;4978982;28;20047;-51
2023/12/04 01:33:34;;;;;;;2.10;0.90;;;;;;;3.99;96.89;99454.91;4978352;28;20055;-50
2023/12/04 01:36:02;;;;;;;1.08;0.98;;;;;;;3.98;96.67;99456.03;4974813;28;20039;-52
2023/12/04 01:38:31;;;;;;;1.88;0.88;;;;;;;3.98;96.60;99453.28;4969343;28;20058;-55
2023/12/04 01:40:58;;;;;;;3.42;0.73;;;;;;;3.99;96.41;99441.22;4971129;28;20034;-53
2023/12/04 01:43:25;;;;;;;7.13;1.55;;;;;;;4.02;96.67;99453.44;4952164;28;20114;-50
2023/12/04 01:45:53;;;;;;;3.22;1.55;;;;;;;4.01;96.92;99441.66;4984838;28;20058;-51
2023/12/04 01:48:22;;;;;;;1.98;1.15;;;;;;;4.03;96.66;99461.31;4979193;28;20046;-52
2023/12/04 01:50:49;;;;;;;3.85;1.08;;;;;;;4.05;96.58;99444.56;4961810;28;20404;-51
2023/12/04 01:53:17;;;;;;;4.15;1.30;;;;;;;4.07;96.53;99445.81;4976760;28;20124;-48
2023/12/04 01:55:46;;;;;;;8.95;1.63;;;;;;;4.10;96.45;99452.56;4976039;28;20456;-55
2023/12/04 01:58:13;;;;;;;2.05;1.40;;;;;;;4.10;96.71;99441.63;4976513;28;20055;-51
2023/12/04 02:00:41;;;;;;;8.07;2.05;;;;;;;4.10;96.78;99442.38;4974990;28;20536;-52
2023/12/04 02:03:09;;;;;;;7.15;2.08;;;;;;;4.10;96.87;99439.66;4954736;28;20098;-54
2023/12/04 02:05:37;;;;;;;2.15;1.48;;;;;;;4.11;97.01;99435.78;4955424;28;20528;-52
2023/12/04 02:08:05;;;;;;;5.15;2.00;;;;;;;4.13;96.99;99439.00;4950228;28;20055;-50
2023/12/04 02:10:32;;;;;;;3.63;1.92;;;;;;;4.13;97.03;99440.94;4952060;28;20051;-52
2023/12/04 02:13:00;;;;;;;7.10;1.45;;;;;;;4.11;97.10;99435.78;4959579;28;20042;-55
2023/12/04 02:15:27;;;;;;;2.55;1.17;;;;;;;4.10;97.19;99436.91;4952068;28;20051;-54
2023/12/04 02:17:55;;;;;;;5.68;2.08;;;;;;;4.10;97.23;99436.91;4957627;28;20500;-50
2023/12/04 02:20:33;;;;;;;4.93;1.55;;;;;;;4.10;97.00;99433.41;4961911;28;20047;-51
2023/12/04 02:23:02;;;;;;;3.70;2.08;;;;;;;4.09;97.11;99440.00;4941343;28;20035;-51
2023/12/04 02:25:31;;;;;;;4.85;1.35;;;;;;;4.10;97.50;99436.13;4949382;28;20709;-52
2023/12/04 02:28:08;;;;;;;4.00;1.38;;;;;;;4.10;97.38;99439.66;4949968;28;20047;-49
2023/12/04 02:30:37;;;;;;;1.88;1.38;;;;;;;4.13;97.29;99443.69;4949945;28;20051;-51
2023/12/04 02:33:06;;;;;;;2.22;1.25;;;;;;;4.14;97.28;99440.59;4949008;28;20094;-53
2023/12/04 02:35:36;;;;;;;5.95;1.30;;;;;;;4.12;97.58;99431.94;4957788;28;20063;-50
2023/12/04 02:38:03;;;;;;;2.03;1.27;;;;;;;4.15;97.44;99441.41;4950867;28;20043;-48
2023/12/04 02:40:31;;;;;;;8.15;1.30;;;;;;;4.15;97.35;99442.22;4949775;28;20048;-53
2023/12/04 02:42:59;;;;;;;3.25;1.20;;;;;;;4.14;97.33;99437.06;4950016;28;20422;-49
2023/12/04 02:45:26;;;;;;;5.22;1.35;;;;;;;4.15;97.04;99442.22;4949426;28;20118;-53
2023/12/04 02:47:53;;;;;;;6.35;1.00;;;;;;;4.15;97.17;99442.22;4949101;28;20110;-52
2023/12/04 02:50:22;;;;;;;3.80;1.20;;;;;;;4.13;97.04;99430.00;4949749;28;20524;-50
2023/12/04 02:52:49;;;;;;;4.03;1.35;;;;;;;4.13;97.08;99428.03;4949453;28;20043;-51
2023/12/04 02:55:16;;;;;;;3.22;1.20;;;;;;;4.14;97.18;99437.06;4948952;29;20047;-53
2023/12/04 02:57:45;;;;;;;2.78;1.10;;;;;;;4.12;97.25;99420.97;4949410;28;20102;-52
2023/12/04 03:00:13;;;;;;;2.45;1.10;;;;;;;4.13;96.65;99427.25;4948853;28;20059;-59
2023/12/04 03:02:54;;;;;;;4.05;1.10;;;;;;;4.11;96.78;99419.34;4306308;22;21249083;-53
2023/12/04 03:05:22;;;;;;;3.70;1.20;;;;;;;4.11;96.76;99418.56;5048882;28;20095;-49
2023/12/04 03:07:49;;;;;;;4.00;1.60;;;;;;;4.09;97.02;99424.38;5045556;28;20122;-51
2023/12/04 03:10:17;;;;;;;2.45;1.33;;;;;;;4.08;96.83;99422.75;5044320;28;20123;-52
2023/12/04 03:12:44;;;;;;;8.45;1.75;;;;;;;4.07;96.66;99421.19;5044232;28;20061;-51
2023/12/04 03:15:12;;;;;;;3.40;2.28;;;;;;;4.06;97.04;99424.22;5051167;28;20111;-51
2023/12/04 03:17:40;;;;;;;4.82;1.23;;;;;;;4.04;96.85;99424.56;5043311;28;20054;-51
2023/12/04 03:20:08;;;;;;;4.25;1.10;;;;;;;4.04;97.31;99432.78;5045132;28;20107;-51
2023/12/04 03:22:38;;;;;;;2.55;1.60;;;;;;;4.03;96.89;99424.91;5042892;28;20041;-48
2023/12/04 03:25:06;;;;;;;2.90;1.50;;;;;;;4.02;96.93;99415.91;5043426;28;20057;-55
2023/12/04 03:27:34;;;;;;;2.40;1.25;;;;;;;4.01;97.08;99429.91;5044650;28;20080;-50
2023/12/04 03:30:02;;;;;;;2.17;1.65;;;;;;;4.00;97.24;99433.78;5043859;28;20038;-54
2023/12/04 03:32:30;;;;;;;8.38;2.00;;;;;;;3.99;97.28;99418.50;5042873;28;20099;-52
2023/12/04 03:34:57;;;;;;;8.93;2.22;;;;;;;3.97;97.04;99423.50;5046208;28;20548;-54
2023/12/04 03:37:24;;;;;;;6.00;1.90;;;;;;;3.96;97.05;99427.38;5043450;28;20525;-53
2023/12/04 03:39:52;;;;;;;4.72;1.40;;;;;;;3.96;96.96;99413.69;5045043;28;20041;-53
2023/12/04 03:42:19;;;;;;;5.93;1.63;;;;;;;3.94;97.14;99419.50;5043136;28;20111;-50
2023/12/04 03:44:46;;;;;;;3.85;1.73;;;;;;;3.95;97.59;99410.13;5044304;28;20048;-52
2023/12/04 03:47:14;;;;;;;5.22;1.25;;;;;;;3.94;97.12;99416.78;5043103;28;20099;-52
2023/12/04 03:49:41;;;;;;;3.28;1.35;;;;;;;3.95;97.25;99426.56;5043281;28;20414;-51
2023/12/04 03:52:09;;;;;;;4.10;1.20;;;;;;;3.95;97.57;99417.53;5047213;28;20041;-53
2023/12/04 03:54:36;;;;;;;5.45;1.20;;;;;;;3.95;97.23;99404.66;5040915;28;20049;-50
2023/12/04 03:57:04;;;;;;;3.75;1.88;;;;;;;3.94;97.42;99408.56;5046495;28;20049;-51
2023/12/04 03:59:31;;;;;;;2.25;1.20;;;;;;;3.93;97.50;99409.69;5042867;28;20053;-55
2023/12/04 04:01:58;;;;;;;2.45;1.70;;;;;;;3.93;97.19;99417.09;5042233;28;20049;-52
2023/12/04 04:04:26;;;;;;;3.67;1.00;;;;;;;3.93;97.31;99406.13;5043160;28;20041;-51
2023/12/04 04:06:53;;;;;;;3.85;0.98;;;;;;;3.91;97.10;99402.94;5043125;28;20052;-51
2023/12/04 04:09:21;;;;;;;4.68;1.58;;;;;;;3.88;97.36;99398.94;5043271;28;20103;-48
2023/12/04 04:11:49;;;;;;;1.77;1.17;;;;;;;3.87;97.37;99389.09;5042427;28;20060;-49
2023/12/04 04:14:17;;;;;;;6.63;1.48;;;;;;;3.88;97.39;99393.44;5029708;28;20079;-53
2023/12/04 04:16:44;;;;;;;3.17;1.42;;;;;;;3.90;97.04;99390.38;5027773;28;20045;-52
2023/12/04 04:19:11;;;;;;;5.65;1.70;;;;;;;3.88;96.96;99387.97;5040732;28;20053;-55
2023/12/04 04:21:40;;;;;;;3.72;1.33;;;;;;;3.88;96.98;99387.16;5037445;28;20053;-55
2023/12/04 04:24:08;;;;;;;1.15;0.90;;;;;;;3.87;96.98;99391.84;5029791;28;20053;-53
2023/12/04 04:26:35;;;;;;;3.70;1.20;;;;;;;3.86;96.99;99387.50;5028068;28;20099;-48
2023/12/04 04:29:03;;;;;;;1.58;1.00;;;;;;;3.85;97.12;99387.84;5029340;28;20822;-51
2023/12/04 04:31:30;;;;;;;2.45;1.25;;;;;;;3.83;96.77;99376.41;5029541;28;20395;-50
2023/12/04 04:33:58;;;;;;;1.45;0.90;;;;;;;3.82;96.86;99389.31;5029155;28;20095;-50
2023/12/04 04:36:25;;;;;;;2.45;0.98;;;;;;;3.82;96.73;99391.22;5029699;28;20490;-51
2023/12/04 04:38:52;;;;;;;1.50;0.77;;;;;;;3.82;97.09;99389.31;5029607;28;20053;-49
2023/12/04 04:41:20;;;;;;;2.42;0.98;;;;;;;3.82;96.73;99402.19;5040019;28;20135;-52
2023/12/04 04:43:47;;;;;;;1.25;1.13;;;;;;;3.80;96.67;99396.25;5027996;28;20099;-49
2023/12/04 04:46:15;;;;;;;2.72;1.20;;;;;;;3.74;96.48;99387.44;5028722;28;20045;-52
2023/12/04 04:48:42;;;;;;;4.47;2.50;;;;;;;3.69;96.69;99393.09;5029795;28;20507;-50
2023/12/04 04:51:09;;;;;;;2.95;1.50;;;;;;;3.62;96.15;99404.59;5028964;28;20064;-52
2023/12/04 04:53:38;;;;;;;3.25;1.42;;;;;;;3.58;96.47;99389.94;5029455;28;20560;-51
2023/12/04 04:56:05;;;;;;;2.08;1.63;;;;;;;3.56;96.38;99402.38;5028673;28;20060;-53
2023/12/04 04:58:33;;;;;;;3.40;2.53;;;;;;;3.50;96.22;99403.69;5029161;28;20457;-55
2023/12/04 05:01:01;;;;;;;3.28;2.15;;;;;;;3.43;96.40;99403.41;5028584;28;20084;-52
2023/12/04 05:03:28;;;;;;;4.72;2.72;;;;;;;3.39;96.63;99408.72;5028770;28;20066;-51
2023/12/04 05:05:55;;;;;;;3.97;2.80;;;;;;;3.37;96.51;99407.47;5029530;28;20092;-55
2023/12/04 05:08:23;;;;;;;3.22;2.65;;;;;;;3.33;96.53;99401.88;5028941;28;20057;-50
2023/12/04 05:10:50;;;;;;;3.17;2.28;;;;;;;3.28;96.53;99402.06;5028231;28;20053;-50
2023/12/04 05:13:17;;;;;;;5.57;2.78;;;;;;;3.25;96.19;99397.25;5029373;28;20111;-50
2023/12/04 05:15:45;;;;;;;5.47;3.67;;;;;;;3.22;96.14;99394.34;5028716;28;20050;-48
2023/12/04 05:18:12;;;;;;;5.50;3.35;;;;;;;3.21;96.26;99396.28;5028695;28;20057;-53
2023/12/04 05:20:39;;;;;;;7.70;3.20;;;;;;;3.19;96.40;99395.00;5027292;28;20553;-50
2023/12/04 05:23:07;;;;;;;3.45;2.13;;;;;;;3.16;96.12;99393.72;5030490;28;20071;-50
2023/12/04 05:25:34;;;;;;;7.53;2.85;;;;;;;3.15;96.21;99391.34;5034920;28;20498;-52
2023/12/04 05:28:11;;;;;;;6.28;3.10;;;;;;;3.15;96.04;99402.28;5028052;28;20053;-51
2023/12/04 05:30:38;;;;;;;4.22;2.95;;;;;;;3.12;95.99;99397.47;5028428;28;20045;-53
2023/12/04 05:33:06;;;;;;;5.75;3.30;;;;;;;3.09;95.96;99390.72;5027418;28;20493;-51
2023/12/04 05:35:34;;;;;;;5.60;3.28;;;;;;;3.10;95.96;99394.25;5029375;28;20053;-53
2023/12/04 05:38:02;;;;;;;4.22;3.00;;;;;;;3.10;96.44;99388.78;5028397;28;20515;-54
2023/12/04 05:40:31;;;;;;;3.65;3.22;;;;;;;3.07;96.44;99393.75;5021149;28;20498;-51
2023/12/04 05:42:58;;;;;;;3.38;2.65;;;;;;;3.07;96.06;99401.19;5033752;28;20052;-54
2023/12/04 05:45:26;;;;;;;4.35;3.58;;;;;;;3.06;96.13;99399.56;5023504;28;20092;-54
2023/12/04 05:47:55;;;;;;;4.03;2.80;;;;;;;3.04;96.17;99410.81;5028734;28;20050;-53
2023/12/04 05:50:22;;;;;;;3.95;3.08;;;;;;;3.03;96.06;99411.16;5027128;28;20430;-51
2023/12/04 05:52:51;;;;;;;4.82;3.25;;;;;;;3.05;96.42;99412.44;5031827;28;20057;-53
2023/12/04 05:55:18;;;;;;;5.80;4.10;;;;;;;3.07;96.08;99412.91;5027028;28;20100;-51
2023/12/04 05:57:45;;;;;;;8.40;3.45;;;;;;;3.07;96.07;99401.97;5028024;28;20104;-52
2023/12/04 06:00:13;;;;;;;3.42;2.90;;;;;;;3.08;96.26;99414.53;5021174;28;20041;-49
2023/12/04 06:02:44;;;;;;;5.88;3.53;;;;;;;3.07;96.33;99418.38;5027489;28;20049;-52
2023/12/04 06:05:11;;;;;;;3.78;2.88;;;;;;;3.08;96.03;99424.66;5009998;28;20693;-51
2023/12/04 06:07:39;;;;;;;4.07;3.67;;;;;;;3.08;96.11;99421.91;5023069;28;20422;-54
2023/12/04 06:10:07;;;;;;;4.75;3.58;;;;;;;3.06;95.97;99410.50;5028250;28;20053;-54
2023/12/04 06:12:34;;;;;;;9.30;4.00;;;;;;;3.06;96.01;99422.25;5027856;28;20511;-50
2023/12/04 06:15:02;;;;;;;5.70;3.90;;;;;;;3.05;96.08;99420.63;5027755;28;20511;-51
2023/12/04 06:17:29;;;;;;;4.55;3.38;;;;;;;3.03;96.46;99417.44;5026923;28;20499;-51
2023/12/04 06:19:56;;;;;;;4.07;3.60;;;;;;;3.00;96.12;99418.09;5029150;28;20057;-55
2023/12/04 06:22:24;;;;;;;6.72;4.38;;;;;;;2.97;96.13;99418.75;5039153;28;20041;-51
2023/12/04 06:24:52;;;;;;;5.22;4.55;;;;;;;2.96;96.11;99419.88;5027349;28;20041;-51
2023/12/04 06:27:20;;;;;;;5.05;3.85;;;;;;;2.97;96.05;99417.94;5027325;28;20045;-51
2023/12/04 06:29:49;;;;;;;5.35;4.20;;;;;;;2.95;96.36;99423.72;5027242;28;20092;-52
2023/12/04 06:32:19;;;;;;;6.53;4.20;;;;;;;2.96;96.30;99428.09;5027694;28;20050;-50
2023/12/04 06:34:47;;;;;;;6.75;4.25;;;;;;;2.94;96.16;99435.78;5026729;28;20091;-49
2023/12/04 06:37:15;;;;;;;5.22;4.20;;;;;;;2.95;96.24;99436.59;5027740;28;20049;-54
2023/12/04 06:39:45;;;;;;;5.60;4.05;;;;;;;2.96;96.59;99427.28;5032474;28;20139;-51
2023/12/04 06:42:13;;;;;;;4.72;3.63;;;;;;;2.95;96.39;99431.13;5027030;28;20087;-50
2023/12/04 06:44:40;;;;;;;3.97;3.38;;;;;;;2.94;96.37;99435.78;5037018;28;20119;-51
2023/12/04 06:47:09;;;;;;;4.65;3.85;;;;;;;2.92;96.53;99435.31;5027154;28;20045;-50
2023/12/04 06:49:36;;;;;;;5.47;4.55;;;;;;;2.91;96.70;99436.44;5041108;28;20502;-55
2023/12/04 06:52:04;;;;;;;8.95;4.65;;;;;;;2.90;96.39;99428.56;5027722;28;20168;-52
2023/12/04 06:54:31;;;;;;;6.22;4.40;;;;;;;2.89;96.75;99433.22;5028686;28;20037;-51
2023/12/04 06:56:59;;;;;;;3.78;3.47;;;;;;;2.88;96.41;99423.44;5027269;28;20049;-51
2023/12/04 06:59:27;;;;;;;5.55;3.67;;;;;;;2.88;96.29;99431.66;5021022;28;20049;-51
2023/12/04 07:01:54;;;;;;;5.55;4.63;;;;;;;2.87;96.21;99432.75;5031478;28;20065;-52
2023/12/04 07:04:22;;;;;;;5.10;4.30;;;;;;;2.86;96.54;99438.56;5036392;28;20080;-51
2023/12/04 07:06:49;;;;;;;6.25;3.83;;;;;;;2.87;96.52;99440.97;5027719;28;20065;-52
2023/12/04 07:09:17;;;;;;;7.30;3.63;;;;;;;2.87;96.82;99440.16;5026805;28;20045;-49
2023/12/04 07:11:44;;;;;;;5.65;4.03;;;;;;;2.88;96.90;99445.31;5028168;28;20049;-53
2023/12/04 07:14:12;;;;;;;6.95;4.30;;;;;;;2.88;96.75;99437.13;5029662;28;20064;-51
2023/12/04 07:16:42;;;;;;;6.82;3.42;;;;;;;2.85;96.41;99437.75;5023950;28;20099;-50
2023/12/04 07:19:11;;;;;;;5.20;3.93;;;;;;;2.84;96.43;99447.06;5038105;28;20042;-50
2023/12/04 07:21:38;;;;;;;5.93;4.55;;;;;;;2.83;96.47;99439.22;5026750;28;20470;-51
2023/12/04 07:24:06;;;;;;;6.55;4.65;;;;;;;2.84;96.54;99444.34;5026396;28;20131;-52
2023/12/04 07:26:35;;;;;;;7.70;4.07;;;;;;;2.84;96.66;99449.00;5026714;28;20038;-49
2023/12/04 07:29:03;;;;;;;4.65;3.63;;;;;;;2.84;96.67;99449.00;5028770;28;20819;-51
2023/12/04 07:31:30;;;;;;;5.75;4.45;;;;;;;2.82;96.57;99441.13;5028024;28;20049;-50
2023/12/04 07:34:00;;;;;;;4.90;4.03;;;;;;;2.81;96.73;99455.94;5026055;28;20091;-53
2023/12/04 07:36:28;;;;;;;9.63;5.45;;;;;;;2.81;96.71;99442.25;5025762;28;20099;-46
2023/12/04 07:38:56;;;;;;;4.53;4.07;;;;;;;2.81;96.70;99455.13;5027183;28;20045;-54
2023/12/04 07:41:23;;;;;;;5.57;4.15;;;;;;;2.81;96.57;99458.66;5032016;28;20047;-49
2023/12/04 07:43:51;;;;;;;5.97;4.40;;;;;;;2.81;96.70;99458.66;5028514;28;20053;-50
2023/12/04 07:46:18;;;;;;;6.15;4.50;;;;;;;2.83;96.82;99458.34;5026070;28;20038;-52
2023/12/04 07:48:46;;;;;;;6.72;4.25;;;;;;;2.83;96.96;99461.09;5028255;28;20053;-51
2023/12/04 07:51:14;;;;;;;5.57;4.25;;;;;;;2.82;96.97;99464.94;5030124;28;20053;-51
2023/12/04 07:53:41;;;;;;;6.65;5.03;;;;;;;2.81;96.76;99466.84;5030732;28;20061;-51
2023/12/04 07:56:09;;;;;;;7.75;4.03;;;;;;;2.81;96.82;99466.03;5029888;28;20538;-52
2023/12/04 07:58:37;;;;;;;5.35;3.55;;;;;;;2.78;96.83;99469.44;5030491;28;20080;-52
2023/12/04 08:01:05;;;;;;;7.13;4.90;;;;;;;2.74;96.66;99458.34;5030404;28;20057;-53
2023/12/04 08:03:33;;;;;;;5.82;4.45;;;;;;;2.70;96.76;99468.31;5031062;28;20119;-53
2023/12/04 08:06:00;;;;;;;8.88;4.20;;;;;;;2.67;96.81;99471.72;5042420;28;20091;-50
2023/12/04 08:08:27;;;;;;;4.90;4.20;;;;;;;2.65;97.12;99478.63;5043751;28;20167;-50
2023/12/04 08:10:55;;;;;;;6.82;4.53;;;;;;;2.61;97.01;99475.75;5030367;28;20099;-53
2023/12/04 08:13:22;;;;;;;5.57;4.10;;;;;;;2.60;97.13;99479.59;5032764;28;20060;-50
2023/12/04 08:15:50;;;;;;;7.90;4.35;;;;;;;2.62;97.34;99471.88;5031391;28;20095;-51
2023/12/04 08:18:18;;;;;;;6.75;4.05;;;;;;;2.62;97.07;99474.59;5028886;28;20051;-51
2023/12/04 08:20:46;;;;;;;6.88;4.32;;;;;;;2.59;97.52;99478.00;5019826;28;20053;-50
2023/12/04 08:23:15;;;;;;;5.53;4.07;;;;;;;2.59;97.78;99486.19;5041970;28;20056;-50
2023/12/04 08:25:42;;;;;;;6.32;4.00;;;;;;;2.59;97.56;99485.38;5029540;28;20052;-51
2023/12/04 08:28:10;;;;;;;6.22;4.53;;;;;;;2.57;97.33;99491.16;5025800;28;20042;-54
2023/12/04 08:30:38;;;;;;;7.32;4.40;;;;;;;2.56;97.70;99494.22;5029883;28;20124;-54
2023/12/04 08:33:06;;;;;;;6.40;4.82;;;;;;;2.54;97.78;99491.81;5034898;28;20565;-53
2023/12/04 08:35:34;;;;;;;7.35;4.88;;;;;;;2.52;97.52;99502.25;5030065;28;20045;-49
2023/12/04 08:38:02;;;;;;;5.93;4.18;;;;;;;2.50;97.89;99500.97;5028285;28;20576;-54
2023/12/04 08:40:30;;;;;;;5.47;4.53;;;;;;;2.47;97.56;99499.69;5030746;28;20087;-52
2023/12/04 08:42:58;;;;;;;7.70;4.30;;;;;;;2.45;97.69;99500.03;5028754;28;20056;-53
2023/12/04 08:45:25;;;;;;;6.05;5.38;;;;;;;2.43;97.66;99498.75;5023990;28;20446;-50
2023/12/04 08:47:53;;;;;;;6.85;4.53;;;;;;;2.42;97.88;99505.31;5030198;28;20111;-53
2023/12/04 08:50:20;;;;;;;5.25;4.60;;;;;;;2.43;97.96;99510.47;5029751;28;20033;-54
2023/12/04 08:52:48;;;;;;;6.32;4.80;;;;;;;2.45;98.22;99507.41;5029339;28;20049;-53
2023/12/04 08:55:15;;;;;;;6.60;5.35;;;;;;;2.42;98.11;99508.84;5029559;28;20053;-54
2023/12/04 08:57:43;;;;;;;6.78;4.95;;;;;;;2.39;97.79;99506.75;5029409;28;20054;-51
2023/12/04 09:00:10;;;;;;;7.22;4.65;;;;;;;2.42;98.30;99505.31;5029804;28;20442;-52
2023/12/04 09:02:38;;;;;;;6.32;3.85;;;;;;;2.40;98.01;99507.56;5029146;28;20446;-52
2023/12/04 09:05:16;;;;;;;6.82;4.25;;;;;;;2.38;98.28;99523.47;5043648;28;20130;-52
2023/12/04 09:07:44;;;;;;;7.75;4.70;;;;;;;2.34;98.11;99506.13;5041936;28;20561;-51
2023/12/04 09:10:14;;;;;;;8.07;5.50;;;;;;;2.36;98.45;99517.50;5029474;28;20442;-56
2023/12/04 09:13:02;;;;;;;7.07;4.70;;;;;;;2.37;98.02;99511.75;5029164;28;20037;-51
2023/12/04 09:15:29;;;;;;;9.75;5.13;;;;;;;2.36;98.23;99518.31;5029212;28;20454;-53
2023/12/04 09:17:57;;;;;;;6.70;5.05;;;;;;;2.35;98.54;99511.28;5029845;28;20107;-52
2023/12/04 09:20:24;;;;;;;7.80;4.93;;;;;;;2.35;98.22;99518.66;5035016;28;20123;-51
2023/12/04 09:22:52;;;;;;;7.60;4.57;;;;;;;2.35;98.41;99522.19;5036229;28;20034;-53
2023/12/04 09:25:30;;;;;;;7.43;4.50;;;;;;;2.36;98.47;99522.97;5017203;28;20099;-52
2023/12/04 09:27:57;;;;;;;7.43;5.35;;;;;;;2.37;98.57;99525.41;5028593;28;20049;-51
2023/12/04 09:30:25;;;;;;;12.57;5.65;;;;;;;2.39;98.74;99527.81;5030157;28;20507;-54
2023/12/04 09:32:54;;;;;;;7.38;4.60;;;;;;;2.40;98.49;99526.69;5031119;28;20143;-52
2023/12/04 09:35:22;;;;;;;8.65;5.40;;;;;;;2.42;98.25;99529.91;5036979;28;20583;-55
2023/12/04 09:37:50;;;;;;;7.25;5.10;;;;;;;2.42;98.75;99519.78;5032066;28;21900;-52
2023/12/04 09:40:18;;;;;;;6.32;4.38;;;;;;;2.45;98.29;99515.59;5038913;28;20049;-52
2023/12/04 09:42:45;;;;;;;8.18;5.38;;;;;;;2.42;98.64;99514.31;5028136;28;20045;-53
2023/12/04 09:45:13;;;;;;;9.68;4.43;;;;;;;2.40;98.60;99513.84;5028254;28;20095;-55
2023/12/04 09:47:42;;;;;;;7.82;5.47;;;;;;;2.39;98.31;99522.34;5031893;28;20052;-51
2023/12/04 09:50:10;;;;;;;8.02;4.75;;;;;;;2.40;98.82;99529.41;5048193;28;20037;-54
2023/12/04 09:52:38;;;;;;;9.07;5.53;;;;;;;2.41;98.73;99520.91;5031023;28;20042;-54
2023/12/04 09:55:06;;;;;;;14.48;5.75;;;;;;;2.41;98.79;99525.53;5028567;28;20122;-56
2023/12/04 09:57:34;;;;;;;8.43;4.70;;;;;;;2.39;98.52;99525.06;5032781;28;20041;-54
2023/12/04 10:00:04;;;;;;;7.03;4.70;;;;;;;2.40;98.40;99529.41;5045856;28;20461;-54
2023/12/04 10:02:33;;;;;;;7.57;4.95;;;;;;;2.42;98.77;99538.09;5042684;28;20077;-49
2023/12/04 10:05:04;;;;;;;7.47;4.72;;;;;;;2.44;98.53;99541.28;5031629;28;20057;-49
2023/12/04 10:07:32;;;;;;;10.57;6.13;;;;;;;2.41;98.58;99553.66;5035329;28;20041;-52
2023/12/04 10:10:00;;;;;;;7.32;4.60;;;;;;;2.41;98.43;99547.41;5028928;28;20048;-55
2023/12/04 10:12:28;;;;;;;7.60;4.07;;;;;;;2.41;98.89;99553.66;5028973;28;20075;-54
2023/12/04 10:15:10;;;;;;;6.97;5.05;;;;;;;2.42;98.86;99559.94;5027691;28;20079;-56
2023/12/04 10:17:40;;;;;;;7.93;4.65;;;;;;;2.42;98.68;99555.28;5027867;28;20113;-53
2023/12/04 10:20:17;;;;;;;8.52;4.50;;;;;;;2.45;98.59;99576.50;5028075;28;22397;-51
2023/12/04 10:22:59;;;;;;;6.75;4.47;;;;;;;2.44;98.46;99569.41;5028308;28;20050;-54
2023/12/04 10:25:29;;;;;;;9.48;6.00;;;;;;;2.46;98.44;99566.38;5017251;28;20743;-52
2023/12/04 10:28:09;;;;;;;4.60;3.70;;;;;;;2.47;98.50;99567.97;5028178;28;20052;-52
2023/12/04 10:30:37;;;;;;;6.05;4.53;;;;;;;2.47;98.42;99573.44;5028316;28;20498;-51
2023/12/04 10:33:07;;;;;;;9.38;5.05;;;;;;;2.46;98.78;99566.38;5036247;28;20087;-49
2023/12/04 10:35:36;;;;;;;9.15;4.95;;;;;;;2.46;98.47;99571.84;5028513;28;20099;-52
2023/12/04 10:38:06;;;;;;;7.20;4.82;;;;;;;2.45;98.79;99576.50;5027646;28;20052;-53
2023/12/04 10:40:36;;;;;;;7.70;5.18;;;;;;;2.46;98.87;99566.38;5028024;28;20049;-50
2023/12/04 10:43:21;;;;;;;8.23;4.63;;;;;;;2.51;98.61;99558.03;5027337;28;20068;-53
2023/12/04 10:45:50;;;;;;;9.20;4.53;;;;;;;2.56;98.55;99566.06;5040964;28;20045;-49
2023/12/04 10:48:19;;;;;;;9.50;5.60;;;;;;;2.58;98.82;99568.47;5027741;28;20080;-53
2023/12/04 10:50:49;;;;;;;7.28;4.75;;;;;;;2.61;98.38;99568.63;5027185;28;20399;-55
2023/12/04 10:53:17;;;;;;;8.05;4.72;;;;;;;2.64;98.40;99568.00;5027937;28;20053;-51
2023/12/04 10:55:47;;;;;;;7.25;4.60;;;;;;;2.67;98.48;99574.75;5026516;28;20049;-51
2023/12/04 10:58:16;;;;;;;8.55;5.72;;;;;;;2.69;98.59;99576.03;5027517;28;20041;-51
2023/12/04 11:00:48;;;;;;;7.93;5.68;;;;;;;2.72;98.25;99561.72;5027298;28;20573;-51
2023/12/04 11:03:44;;;;;;;10.43;5.28;;;;;;;2.76;98.14;99579.06;5027347;28;20541;-53
2023/12/04 11:06:16;;;;;;;8.18;4.57;;;;;;;2.77;98.19;99572.50;5016780;28;20510;-50
2023/12/04 11:08:52;;;;;;;7.78;5.20;;;;;;;2.80;98.13;99571.84;5033578;28;20041;-51
2023/12/04 11:11:27;;;;;;;11.32;4.80;;;;;;;2.83;98.26;99582.13;5035621;28;20049;-53
2023/12/04 11:14:01;;;;;;;8.43;5.25;;;;;;;2.87;98.55;99577.63;5033543;28;20110;-49
2023/12/04 11:16:48;;;;;;;8.80;5.10;;;;;;;2.88;98.18;99567.50;5032606;28;20054;-54
2023/12/04 11:19:27;;;;;;;7.97;4.65;;;;;;;2.91;98.14;99566.88;5037959;28;20693;-52
2023/12/04 11:21:59;;;;;;;9.20;5.22;;;;;;;2.98;98.11;99565.25;5044875;28;20045;-54
2023/12/04 11:24:27;;;;;;;7.50;4.90;;;;;;;3.03;98.17;99565.06;5038235;28;20107;-52
2023/12/04 11:26:57;;;;;;;9.77;5.28;;;;;;;3.08;97.85;99553.16;5031837;28;20473;-55
2023/12/04 11:29:26;;;;;;;9.32;4.75;;;;;;;3.11;98.15;99574.38;5043697;28;20048;-54
2023/12/04 11:31:53;;;;;;;8.60;4.90;;;;;;;3.14;98.05;99576.47;5041753;28;20045;-54
2023/12/04 11:34:21;;;;;;;7.90;5.40;;;;;;;3.18;97.63;99576.63;5037525;28;20053;-54
2023/12/04 11:36:49;;;;;;;9.70;6.70;;;;;;;3.21;97.65;99584.97;5031184;28;20053;-53
2023/12/04 11:39:19;;;;;;;10.77;6.05;;;;;;;3.24;98.27;99572.59;5043469;28;20060;-51
2023/12/04 11:41:47;;;;;;;9.30;4.72;;;;;;;3.28;97.79;99573.56;5031411;28;20372;-54
2023/12/04 11:44:15;;;;;;;9.98;4.70;;;;;;;3.31;97.87;99567.44;5044436;28;20049;-53
2023/12/04 11:47:04;;;;;;;7.40;5.15;;;;;;;3.31;97.54;99575.66;5031437;28;20046;-50